createdAt,value
2022-10-20T00:00:28.394Z,90.01
2022-10-20T00:02:55.817Z,89.73
2022-10-20T00:05:23.182Z,89.80
2022-10-20T00:07:50.509Z,89.89
2022-10-20T00:10:17.934Z,89.50
2022-10-20T00:12:45.251Z,89.31
2022-10-20T00:15:14.579Z,88.18
2022-10-20T00:17:41.859Z,87.64
2022-10-20T00:20:09.822Z,85.89
2022-10-20T00:22:37.534Z,85.97
2022-10-20T00:25:05.383Z,86.88
2022-10-20T00:27:32.701Z,86.87
2022-10-20T00:30:00.053Z,86.32
2022-10-20T00:32:27.613Z,86.77
2022-10-20T00:34:54.962Z,87.45
2022-10-20T00:37:22.576Z,86.64
2022-10-20T00:39:49.856Z,86.79
2022-10-20T00:42:19.115Z,86.71
2022-10-20T00:44:50.840Z,86.80
2022-10-20T00:47:21.050Z,86.90
2022-10-20T00:49:50.005Z,87.76
2022-10-20T00:52:20.899Z,87.77
2022-10-20T00:54:49.796Z,87.71
2022-10-20T00:57:17.579Z,88.80
2022-10-20T00:59:45.385Z,88.46
2022-10-20T01:02:15.108Z,88.63
2022-10-20T01:04:43.283Z,88.56
2022-10-20T01:07:10.642Z,89.18
2022-10-20T01:09:39.148Z,89.64
2022-10-20T01:12:23.155Z,89.95
2022-10-20T01:15:02.891Z,90.48
2022-10-20T01:18:05.239Z,90.75
2022-10-20T01:20:50.690Z,90.85
2022-10-20T01:23:26.900Z,90.90
2022-10-20T01:26:24.235Z,91.49
2022-10-20T01:29:03.453Z,91.21
2022-10-20T01:32:04.403Z,90.92
2022-10-20T01:34:50.600Z,92.45
2022-10-20T01:37:34.434Z,90.79
2022-10-20T01:40:43.642Z,90.13
2022-10-20T01:43:14.293Z,91.34
2022-10-20T01:45:45.729Z,90.91
2022-10-20T01:48:16.667Z,90.64
2022-10-20T01:50:47.452Z,90.65
2022-10-20T01:53:18.018Z,89.95
2022-10-20T01:55:45.464Z,89.74
2022-10-20T01:59:03.286Z,88.72
2022-10-20T02:01:58.904Z,89.33
2022-10-20T02:04:46.552Z,90.00
2022-10-20T02:07:25.477Z,90.21
2022-10-20T02:09:58.322Z,89.84
2022-10-20T02:12:29.754Z,89.96
2022-10-20T02:14:58.129Z,90.97
2022-10-20T02:17:25.528Z,90.74
2022-10-20T02:19:53.775Z,91.20
2022-10-20T02:22:22.643Z,91.42
2022-10-20T02:24:53.603Z,92.29
2022-10-20T02:27:37.438Z,92.35
2022-10-20T02:30:11.003Z,92.53
2022-10-20T02:32:41.651Z,93.06
2022-10-20T02:35:14.718Z,92.96
2022-10-20T02:37:42.071Z,93.34
2022-10-20T02:40:10.193Z,93.42
2022-10-20T02:42:38.768Z,93.51
2022-10-20T02:45:07.221Z,93.64
2022-10-20T02:47:35.585Z,93.46
2022-10-20T02:50:03.263Z,94.14
2022-10-20T02:52:30.610Z,93.80
2022-10-20T02:54:57.979Z,94.98
2022-10-20T02:57:25.504Z,94.90
2022-10-20T02:59:53.226Z,95.17
2022-10-20T03:02:20.577Z,95.47
2022-10-20T03:04:50.405Z,95.11
2022-10-20T03:07:17.759Z,95.65
2022-10-20T03:09:45.071Z,95.92
2022-10-20T03:12:12.346Z,96.33
2022-10-20T03:14:40.178Z,95.96
2022-10-20T03:17:07.487Z,95.98
2022-10-20T03:19:34.808Z,96.15
2022-10-20T03:22:02.170Z,96.35
2022-10-20T03:24:29.400Z,96.24
2022-10-20T03:26:56.731Z,96.17
2022-10-20T03:29:24.261Z,95.67
2022-10-20T03:31:51.547Z,95.52
2022-10-20T03:34:18.890Z,96.03
2022-10-20T03:36:46.274Z,96.21
2022-10-20T03:39:13.607Z,96.99
2022-10-20T03:41:41.048Z,96.70
2022-10-20T03:44:10.302Z,96.19
2022-10-20T03:46:37.643Z,95.79
2022-10-20T03:49:05.065Z,95.69
2022-10-20T03:51:32.420Z,96.33
2022-10-20T03:53:59.723Z,96.40
2022-10-20T03:56:27.086Z,95.70
2022-10-20T03:58:54.407Z,94.42
2022-10-20T04:01:27.090Z,95.38
2022-10-20T04:03:54.423Z,95.95
2022-10-20T04:06:21.806Z,95.13
2022-10-20T04:08:49.145Z,96.13
2022-10-20T04:11:16.524Z,95.53
2022-10-20T04:13:43.869Z,96.30
2022-10-20T04:16:11.175Z,97.29
2022-10-20T04:18:38.719Z,97.46
2022-10-20T04:21:06.234Z,97.34
2022-10-20T04:23:33.593Z,97.77
2022-10-20T04:26:07.952Z,97.35
2022-10-20T04:28:35.271Z,97.71
2022-10-20T04:31:02.656Z,98.26
2022-10-20T04:33:30.063Z,98.04
2022-10-20T04:36:03.838Z,98.14
2022-10-20T04:38:31.980Z,97.85
2022-10-20T04:41:04.050Z,97.79
2022-10-20T04:43:33.218Z,97.57
2022-10-20T04:46:07.024Z,96.83
2022-10-20T04:48:37.569Z,97.42
2022-10-20T04:51:11.702Z,98.15
2022-10-20T04:53:39.451Z,98.01
2022-10-20T04:56:08.571Z,98.12
2022-10-20T04:58:36.171Z,98.62
2022-10-20T05:01:06.675Z,97.85
2022-10-20T05:03:35.454Z,97.65
2022-10-20T05:06:12.931Z,97.52
2022-10-20T05:08:41.569Z,97.39
2022-10-20T05:11:10.449Z,97.72
2022-10-20T05:13:38.303Z,97.46
2022-10-20T05:16:06.408Z,97.14
2022-10-20T05:18:34.514Z,97.50
2022-10-20T05:21:19.780Z,97.30
2022-10-20T05:23:47.133Z,97.24
2022-10-20T05:26:16.961Z,96.87
2022-10-20T05:28:46.745Z,96.43
2022-10-20T05:31:15.471Z,96.87
2022-10-20T05:33:48.304Z,96.63
2022-10-20T05:36:21.555Z,96.93
2022-10-20T05:38:50.869Z,96.57
2022-10-20T05:41:21.415Z,96.99
2022-10-20T05:43:50.465Z,96.04
2022-10-20T05:46:18.640Z,96.04
2022-10-20T05:48:46.977Z,96.10
2022-10-20T05:51:19.903Z,95.45
2022-10-20T05:53:48.098Z,94.42
2022-10-20T05:56:18.350Z,93.60
2022-10-20T05:58:47.319Z,93.57
2022-10-20T06:01:19.140Z,93.79
2022-10-20T06:03:53.935Z,93.83
2022-10-20T06:06:23.499Z,93.60
2022-10-20T06:08:51.181Z,93.03
2022-10-20T06:11:19.512Z,92.92
2022-10-20T06:13:48.656Z,92.61
2022-10-20T06:16:24.759Z,92.28
2022-10-20T06:18:52.814Z,91.00
2022-10-20T06:21:33.950Z,89.98
2022-10-20T06:24:04.681Z,88.91
2022-10-20T06:26:35.494Z,88.38
2022-10-20T06:29:05.055Z,88.59
2022-10-20T06:31:41.558Z,88.29
2022-10-20T06:34:13.403Z,88.75
2022-10-20T06:36:42.181Z,88.38
2022-10-20T06:39:13.518Z,88.83
2022-10-20T06:41:40.882Z,88.58
2022-10-20T06:44:18.298Z,88.89
2022-10-20T06:46:45.914Z,88.55
2022-10-20T06:49:14.161Z,88.34
2022-10-20T06:51:41.717Z,88.58
2022-10-20T06:54:09.489Z,87.13
2022-10-20T06:56:37.281Z,86.90
2022-10-20T06:59:04.641Z,86.24
2022-10-20T07:01:34.298Z,85.62
2022-10-20T07:04:05.513Z,85.01
2022-10-20T07:06:35.281Z,85.40
2022-10-20T07:09:08.378Z,85.58
2022-10-20T07:11:36.254Z,85.65
2022-10-20T07:14:04.416Z,83.88
2022-10-20T07:16:34.996Z,83.73
2022-10-20T07:19:03.787Z,81.98
2022-10-20T07:21:35.705Z,80.65
2022-10-20T07:24:06.704Z,79.60
2022-10-20T07:26:36.313Z,80.16
2022-10-20T07:29:04.397Z,78.56
2022-10-20T07:31:45.822Z,76.78
2022-10-20T07:34:31.546Z,74.82
2022-10-20T07:36:59.302Z,73.96
2022-10-20T07:39:27.093Z,72.17
2022-10-20T07:41:54.665Z,71.06
2022-10-20T07:44:22.265Z,68.16
2022-10-20T07:46:50.178Z,63.07
2022-10-20T07:52:05.967Z,60.56
2022-10-20T07:54:33.323Z,63.22
2022-10-20T07:57:00.638Z,63.59
2022-10-20T07:59:29.454Z,60.84
2022-10-20T08:01:59.589Z,58.19
2022-10-20T08:04:27.801Z,56.11
2022-10-20T08:06:55.162Z,56.06
2022-10-20T08:09:22.494Z,53.83
2022-10-20T08:11:52.866Z,52.53
2022-10-20T08:14:23.451Z,51.24
2022-10-20T08:16:51.942Z,49.24
2022-10-20T08:19:25.096Z,50.07
2022-10-20T08:21:52.647Z,53.85
2022-10-20T08:24:20.247Z,55.60
2022-10-20T08:26:47.620Z,56.98
2022-10-20T08:29:14.973Z,59.33
2022-10-20T08:31:43.951Z,60.55
2022-10-20T08:34:11.547Z,60.70
2022-10-20T08:36:38.922Z,60.82
2022-10-20T08:39:06.632Z,59.90
2022-10-20T08:44:32.522Z,58.19
2022-10-20T08:47:02.180Z,57.47
2022-10-20T08:49:32.829Z,56.23
2022-10-20T08:52:01.118Z,53.42
2022-10-20T08:54:28.558Z,52.47
2022-10-20T08:56:55.906Z,51.95
2022-10-20T08:59:30.189Z,49.99
2022-10-20T09:01:57.762Z,48.18
2022-10-20T09:04:47.724Z,47.90
2022-10-20T09:07:36.202Z,49.40
2022-10-20T09:10:35.138Z,50.66
2022-10-20T09:13:26.337Z,52.37
2022-10-20T09:15:58.956Z,52.66
2022-10-20T09:18:26.544Z,53.91
2022-10-20T09:20:57.704Z,51.43
2022-10-20T09:23:47.619Z,51.46
2022-10-20T09:26:37.565Z,50.57
2022-10-20T09:29:20.755Z,51.90
2022-10-20T09:31:50.039Z,51.30
2022-10-20T09:34:27.955Z,52.08
2022-10-20T09:37:04.391Z,55.22
2022-10-20T09:39:55.458Z,60.09
2022-10-20T09:42:29.263Z,60.45
2022-10-20T09:45:00.495Z,59.21
2022-10-20T09:47:28.963Z,56.92
2022-10-20T09:50:06.074Z,57.67
2022-10-20T09:52:47.369Z,56.10
2022-10-20T09:55:23.526Z,55.91
2022-10-20T09:57:51.238Z,55.28
2022-10-20T10:00:38.534Z,55.53
2022-10-20T10:03:22.996Z,55.52
2022-10-20T10:05:54.177Z,54.70
2022-10-20T10:08:26.905Z,56.28
2022-10-20T10:11:05.348Z,56.95
2022-10-20T10:13:40.597Z,55.45
2022-10-20T10:16:10.997Z,56.06
2022-10-20T10:18:39.097Z,56.70
2022-10-20T10:21:09.940Z,55.98
2022-10-20T10:24:12.774Z,56.32
2022-10-20T10:26:45.373Z,56.15
2022-10-20T10:29:19.398Z,56.14
2022-10-20T10:31:57.948Z,55.57
2022-10-20T10:35:02.819Z,56.05
2022-10-20T10:37:49.132Z,56.60
2022-10-20T10:40:20.233Z,55.45
2022-10-20T10:43:06.377Z,55.61
2022-10-20T10:45:52.538Z,55.55
2022-10-20T10:48:50.481Z,56.05
2022-10-20T10:51:35.458Z,56.82
2022-10-20T10:54:11.724Z,57.57
2022-10-20T10:56:54.217Z,57.07
2022-10-20T10:59:29.926Z,56.32
2022-10-20T11:02:15.327Z,55.62
2022-10-20T11:05:02.744Z,56.69
2022-10-20T11:07:39.375Z,56.84
2022-10-20T11:10:30.533Z,56.85
2022-10-20T11:13:26.040Z,57.14
2022-10-20T11:16:13.463Z,56.65
2022-10-20T11:19:02.275Z,56.58
2022-10-20T11:21:40.724Z,56.43
2022-10-20T11:24:13.124Z,57.24
2022-10-20T11:26:49.656Z,57.00
2022-10-20T11:29:31.393Z,57.03
2022-10-20T11:32:23.964Z,56.58
2022-10-20T11:35:06.451Z,55.98
2022-10-20T11:38:07.347Z,56.70
2022-10-20T11:40:46.884Z,55.87
2022-10-20T11:43:27.405Z,53.48
2022-10-20T11:46:04.655Z,54.43
2022-10-20T11:48:46.278Z,54.56
2022-10-20T11:51:31.759Z,55.26
2022-10-20T11:54:23.893Z,53.28
2022-10-20T11:57:12.323Z,54.37
2022-10-20T12:00:03.462Z,55.18
2022-10-20T12:02:49.164Z,53.98
2022-10-20T12:05:35.167Z,53.59
2022-10-20T12:08:29.797Z,54.78
2022-10-20T12:11:30.020Z,53.61
2022-10-20T12:14:06.903Z,52.94
2022-10-20T12:16:52.393Z,52.27
2022-10-20T12:19:25.624Z,52.77
2022-10-20T12:22:06.084Z,52.72
2022-10-20T12:24:35.503Z,53.25
2022-10-20T12:27:08.927Z,53.14
2022-10-20T12:29:36.300Z,54.11
2022-10-20T12:32:24.081Z,54.07
2022-10-20T12:34:57.436Z,53.58
2022-10-20T12:37:24.812Z,54.00
2022-10-20T12:39:54.808Z,54.39
2022-10-20T12:42:28.086Z,55.10
2022-10-20T12:45:02.496Z,55.21
2022-10-20T12:47:32.377Z,54.69
2022-10-20T12:50:02.714Z,54.82
2022-10-20T12:52:34.066Z,55.24
2022-10-20T12:55:18.518Z,55.60
2022-10-20T12:57:46.903Z,55.63
2022-10-20T13:00:20.173Z,55.53
2022-10-20T13:03:31.539Z,55.00
2022-10-20T13:05:59.481Z,55.21
2022-10-20T13:08:30.989Z,54.81
2022-10-20T13:11:33.457Z,55.11
2022-10-20T13:14:07.772Z,54.48
2022-10-20T13:16:35.380Z,54.17
2022-10-20T13:19:08.375Z,54.11
2022-10-20T13:21:35.887Z,54.41
2022-10-20T13:24:11.721Z,54.54
2022-10-20T13:26:48.800Z,54.40
2022-10-20T13:29:22.597Z,55.73
2022-10-20T13:34:52.936Z,55.35
2022-10-20T13:37:35.321Z,54.85
2022-10-20T13:40:25.854Z,54.20
2022-10-20T13:43:05.492Z,54.99
2022-10-20T13:46:01.538Z,55.23
2022-10-20T13:48:49.899Z,54.59
2022-10-20T13:51:23.315Z,55.31
2022-10-20T13:53:55.414Z,55.37
2022-10-20T13:56:45.748Z,54.37
2022-10-20T13:59:18.909Z,54.65
2022-10-20T14:01:49.315Z,54.26
2022-10-20T14:04:35.435Z,54.60
2022-10-20T14:07:09.966Z,54.00
2022-10-20T14:09:40.591Z,54.37
2022-10-20T14:12:23.709Z,55.20
2022-10-20T14:15:01.487Z,56.39
2022-10-20T14:17:29.249Z,55.19
2022-10-20T14:20:19.388Z,56.16
2022-10-20T14:22:47.858Z,56.26
2022-10-20T14:25:15.824Z,55.40
2022-10-20T14:27:43.429Z,55.42
2022-10-20T14:30:18.621Z,55.58
2022-10-20T14:32:47.924Z,55.81
2022-10-20T14:35:32.827Z,56.15
2022-10-20T14:38:08.636Z,56.53
2022-10-20T14:40:37.993Z,57.15
2022-10-20T14:43:21.448Z,57.55
2022-10-20T14:45:54.405Z,57.66
2022-10-20T14:48:22.256Z,58.08
2022-10-20T14:50:50.175Z,58.58
2022-10-20T14:53:25.174Z,58.79
2022-10-20T14:55:53.011Z,58.74
2022-10-20T14:58:54.134Z,58.67
2022-10-20T15:01:23.657Z,58.87
2022-10-20T15:04:04.397Z,59.42
2022-10-20T15:06:32.107Z,60.00
2022-10-20T15:09:00.351Z,60.44
2022-10-20T15:11:28.352Z,61.30
2022-10-20T15:13:59.052Z,62.46
2022-10-20T15:16:45.593Z,63.27
2022-10-20T15:19:24.382Z,62.66
2022-10-20T15:22:09.855Z,64.19
2022-10-20T15:24:38.041Z,63.36
2022-10-20T15:27:15.720Z,63.99
2022-10-20T15:29:52.324Z,63.72
2022-10-20T15:32:19.670Z,63.56
2022-10-20T15:34:46.962Z,64.64
2022-10-20T15:37:14.329Z,65.08
2022-10-20T15:39:41.606Z,65.49
2022-10-20T15:42:11.991Z,66.24
2022-10-20T15:44:39.435Z,66.02
2022-10-20T15:47:08.497Z,66.67
2022-10-20T15:49:35.808Z,66.99
2022-10-20T15:52:03.766Z,68.19
2022-10-20T15:54:31.132Z,68.11
2022-10-20T15:56:58.480Z,68.54
2022-10-20T15:59:25.958Z,69.41
2022-10-20T16:01:53.354Z,69.17
2022-10-20T16:04:23.689Z,69.96
2022-10-20T16:06:57.753Z,69.35
2022-10-20T16:09:26.585Z,69.61
2022-10-20T16:11:54.005Z,70.22
2022-10-20T16:14:21.291Z,70.91
2022-10-20T16:16:48.852Z,71.57
2022-10-20T16:19:16.278Z,71.81
2022-10-20T16:21:43.613Z,71.99
2022-10-20T16:24:11.563Z,72.38
2022-10-20T16:26:38.942Z,72.80
2022-10-20T16:29:06.269Z,73.23
2022-10-20T16:31:33.607Z,73.29
2022-10-20T16:34:00.978Z,73.77
2022-10-20T16:36:28.329Z,74.29
2022-10-20T16:38:58.267Z,74.46
2022-10-20T16:41:25.655Z,74.32
2022-10-20T16:43:55.233Z,74.61
2022-10-20T16:46:24.886Z,75.07
2022-10-20T16:48:52.289Z,75.33
2022-10-20T16:51:19.735Z,75.50
2022-10-20T16:53:47.054Z,75.79
2022-10-20T16:56:16.908Z,76.45
2022-10-20T16:58:47.676Z,76.70
2022-10-20T17:01:17.579Z,76.53
2022-10-20T17:03:49.411Z,76.51
2022-10-20T17:06:19.357Z,76.94
2022-10-20T17:08:46.955Z,76.60
2022-10-20T17:11:16.940Z,76.87
2022-10-20T17:13:44.485Z,76.58
2022-10-20T17:16:15.313Z,76.48
2022-10-20T17:18:43.194Z,77.79
2022-10-20T17:21:11.993Z,78.29
2022-10-20T17:23:42.687Z,77.71
2022-10-20T17:26:17.511Z,77.11
2022-10-20T17:28:45.643Z,77.92
2022-10-20T17:33:47.446Z,79.06
2022-10-20T17:36:15.602Z,79.23
2022-10-20T17:38:43.267Z,79.62
2022-10-20T17:41:13.569Z,79.69
2022-10-20T17:43:40.980Z,78.24
2022-10-20T17:46:14.289Z,77.27
2022-10-20T17:48:44.028Z,77.22
2022-10-20T17:51:17.132Z,76.02
2022-10-20T17:53:48.059Z,74.79
2022-10-20T17:56:18.037Z,75.19
2022-10-20T17:58:47.682Z,75.60
2022-10-20T18:01:27.002Z,75.75
2022-10-20T18:03:56.890Z,76.77
2022-10-20T18:06:29.929Z,76.85
2022-10-20T18:09:02.104Z,76.99
2022-10-20T18:11:32.139Z,77.77
2022-10-20T18:14:00.553Z,77.82
2022-10-20T18:16:30.546Z,77.64
2022-10-20T18:21:28.123Z,78.68
2022-10-20T18:23:56.905Z,78.50
2022-10-20T18:26:25.512Z,77.33
2022-10-20T18:28:52.814Z,76.40
2022-10-20T18:31:25.171Z,76.56
2022-10-20T18:34:02.560Z,78.76
2022-10-20T18:36:38.072Z,78.43
2022-10-20T18:39:08.341Z,77.70
2022-10-20T18:41:39.069Z,77.90
2022-10-20T18:44:10.225Z,77.64
2022-10-20T18:46:38.169Z,76.43
2022-10-20T18:49:07.366Z,76.36
2022-10-20T18:51:36.108Z,76.70
2022-10-20T18:54:05.139Z,78.35
2022-10-20T18:56:32.784Z,76.57
2022-10-20T18:59:03.190Z,75.95
2022-10-20T19:01:33.827Z,75.03
2022-10-20T19:04:02.200Z,75.90
2022-10-20T19:06:39.856Z,75.63
2022-10-20T19:09:14.386Z,75.50
2022-10-20T19:11:42.058Z,76.25
2022-10-20T19:14:11.987Z,77.52
2022-10-20T19:16:41.482Z,78.65
2022-10-20T19:19:09.359Z,77.85
2022-10-20T19:21:37.042Z,77.14
2022-10-20T19:24:07.694Z,77.40
2022-10-20T19:26:38.611Z,78.07
2022-10-20T19:29:09.933Z,79.69
2022-10-20T19:31:53.362Z,80.31
2022-10-20T19:34:27.189Z,79.70
2022-10-20T19:36:55.517Z,79.86
2022-10-20T19:39:27.432Z,79.59
2022-10-20T19:41:57.552Z,80.05
2022-10-20T19:44:26.339Z,80.51
2022-10-20T19:46:53.861Z,80.63
2022-10-20T19:49:23.488Z,81.48
2022-10-20T19:51:51.375Z,82.45
2022-10-20T19:54:19.610Z,82.59
2022-10-20T19:56:47.173Z,82.74
2022-10-20T19:59:33.192Z,83.23
2022-10-20T20:02:01.019Z,82.56
2022-10-20T20:04:28.512Z,81.92
2022-10-20T20:07:01.044Z,82.42
2022-10-20T20:09:30.155Z,82.56
2022-10-20T20:11:58.177Z,82.72
2022-10-20T20:14:26.220Z,81.85
2022-10-20T20:16:53.577Z,81.81
2022-10-20T20:19:20.979Z,82.57
2022-10-20T20:21:48.374Z,82.21
2022-10-20T20:24:15.831Z,82.95
2022-10-20T20:26:44.724Z,83.92
2022-10-20T20:29:13.270Z,83.63
2022-10-20T20:31:40.634Z,83.65
2022-10-20T20:34:08.024Z,82.56
2022-10-20T20:36:35.389Z,83.04
2022-10-20T20:39:03.185Z,84.11
2022-10-20T20:41:31.197Z,84.77
2022-10-20T20:44:01.024Z,83.55
2022-10-20T20:46:31.084Z,84.44
2022-10-20T20:49:00.184Z,85.37
2022-10-20T20:51:29.069Z,85.59
2022-10-20T20:53:56.331Z,84.67
2022-10-20T20:56:26.851Z,84.72
2022-10-20T20:58:55.271Z,84.72
2022-10-20T21:01:24.417Z,85.24
2022-10-20T21:03:56.162Z,85.35
2022-10-20T21:06:33.123Z,85.68
2022-10-20T21:09:01.581Z,85.09
2022-10-20T21:11:29.205Z,85.28
2022-10-20T21:13:58.773Z,85.29
2022-10-20T21:16:31.853Z,85.31
2022-10-20T21:19:04.739Z,85.80
2022-10-20T21:21:38.125Z,86.12
2022-10-20T21:24:06.683Z,86.86
2022-10-20T21:26:34.040Z,86.94
2022-10-20T21:29:01.548Z,86.94
2022-10-20T21:31:30.196Z,86.93
2022-10-20T21:34:03.781Z,86.56
2022-10-20T21:36:34.671Z,86.05
2022-10-20T21:39:05.191Z,85.64
2022-10-20T21:41:35.256Z,84.94
2022-10-20T21:44:04.789Z,85.65
2022-10-20T21:46:42.067Z,86.55
2022-10-20T21:49:20.780Z,86.46
2022-10-20T21:51:52.301Z,86.42
2022-10-20T21:56:55.182Z,85.54
2022-10-20T21:59:30.382Z,83.72
2022-10-20T22:01:59.986Z,84.42
2022-10-20T22:04:30.851Z,84.53
2022-10-20T22:06:59.441Z,84.53
2022-10-20T22:09:27.088Z,85.09
2022-10-20T22:11:56.633Z,85.39
2022-10-20T22:14:24.149Z,85.06
2022-10-20T22:16:51.914Z,85.70
2022-10-20T22:19:22.560Z,85.94
2022-10-20T22:21:51.626Z,85.69
2022-10-20T22:24:20.721Z,86.09
2022-10-20T22:26:51.430Z,86.16
2022-10-20T22:29:21.080Z,86.27
2022-10-20T22:31:48.655Z,86.55
2022-10-20T22:34:16.191Z,86.08
2022-10-20T22:36:44.457Z,85.89
2022-10-20T22:41:44.842Z,86.24
2022-10-20T22:44:12.183Z,86.39
2022-10-20T22:46:39.506Z,86.69
2022-10-20T22:49:06.908Z,86.70
2022-10-20T22:51:34.233Z,86.48
2022-10-20T22:54:01.611Z,86.78
2022-10-20T22:56:28.948Z,86.04
2022-10-20T22:58:56.390Z,86.47
2022-10-20T23:01:24.323Z,86.77
2022-10-20T23:03:52.545Z,87.11
2022-10-20T23:06:23.221Z,87.54
2022-10-20T23:08:53.662Z,87.59
2022-10-20T23:11:21.836Z,87.60
2022-10-20T23:14:05.603Z,86.94
2022-10-20T23:16:33.009Z,86.73
2022-10-20T23:19:00.488Z,86.90
2022-10-20T23:21:27.904Z,86.22
2022-10-20T23:23:55.193Z,85.78
2022-10-20T23:26:22.635Z,84.90
2022-10-20T23:28:50.067Z,83.98
2022-10-20T23:31:21.752Z,83.15
2022-10-20T23:33:54.314Z,83.32
2022-10-20T23:36:22.502Z,83.40
2022-10-20T23:38:50.048Z,84.11
2022-10-20T23:41:17.423Z,84.76
2022-10-20T23:43:44.942Z,85.07
2022-10-20T23:46:12.431Z,85.40
2022-10-20T23:48:40.210Z,84.88
2022-10-20T23:51:08.193Z,84.19
2022-10-20T23:53:35.820Z,84.05
2022-10-20T23:56:03.858Z,84.62
2022-10-20T23:58:31.258Z,84.91
